Time;durP1;ratioP1;P1;durP2;ratioP2;P2;SDS_P1;SDS_P2;PMS_P1;PMS_P2;Temp;Humidity;BMP_temperature;BMP_pressure;BME280_temperature;BME280_humidity;BME280_pressure;Samples;Min_cycle;Max_cycle;Signal;HPM_P1;HPM_P2
2023/05/22 03:00:37;;;;;;;52.45;37.30;;;17.00;99.90;;;;;;5902042;23;19925;-75
2023/05/22 03:03:04;;;;;;;59.15;39.70;;;16.90;99.90;;;;;;4974368;28;20073;-76
2023/05/22 03:05:30;;;;;;;60.25;39.30;;;16.90;99.90;;;;;;4976181;28;20050;-75
2023/05/22 03:07:56;;;;;;;61.28;41.00;;;16.90;99.90;;;;;;4976122;28;20393;-76
2023/05/22 03:10:23;;;;;;;56.22;36.63;;;16.90;99.90;;;;;;4974148;28;20046;-76
2023/05/22 03:12:50;;;;;;;57.00;38.28;;;16.90;99.90;;;;;;4957472;28;20054;-76
2023/05/22 03:15:19;;;;;;;56.78;38.45;;;16.90;99.90;;;;;;4956486;29;20051;-75
2023/05/22 03:17:45;;;;;;;59.63;38.05;;;16.90;99.90;;;;;;4956505;28;20101;-75
2023/05/22 03:20:15;;;;;;;50.72;36.03;;;16.90;99.90;;;;;;4955993;28;20126;-73
2023/05/22 03:22:41;;;;;;;49.20;34.13;;;16.90;99.90;;;;;;4956314;28;20090;-73
2023/05/22 03:25:08;;;;;;;65.60;41.28;;;16.80;99.90;;;;;;4957481;28;20483;-72
2023/05/22 03:27:34;;;;;;;63.67;41.42;;;16.80;99.90;;;;;;4957554;28;20043;-74
2023/05/22 03:30:00;;;;;;;65.13;42.25;;;16.90;99.90;;;;;;4957788;28;20042;-75
2023/05/22 03:32:26;;;;;;;59.50;40.88;;;16.80;99.90;;;;;;4956226;28;20059;-73
2023/05/22 03:34:51;;;;;;;64.80;40.78;;;16.80;99.90;;;;;;4956138;28;20050;-75
2023/05/22 03:37:17;;;;;;;61.08;41.95;;;16.80;99.90;;;;;;4956113;29;20051;-74
2023/05/22 03:39:43;;;;;;;57.85;39.25;;;16.70;99.90;;;;;;4956248;28;20046;-74
2023/05/22 03:42:08;;;;;;;62.72;41.35;;;16.70;99.90;;;;;;4956230;28;20089;-73
2023/05/22 03:44:34;;;;;;;57.58;37.80;;;16.70;99.90;;;;;;4956702;29;20082;-74
2023/05/22 03:47:00;;;;;;;61.97;42.53;;;16.70;99.90;;;;;;4955904;29;20039;-76
2023/05/22 03:49:26;;;;;;;60.50;41.05;;;16.70;99.90;;;;;;4955779;29;20044;-75
2023/05/22 03:51:52;;;;;;;59.72;38.83;;;16.70;99.90;;;;;;4957088;28;20047;-74
2023/05/22 03:54:17;;;;;;;52.40;35.85;;;16.80;99.90;;;;;;4955810;29;20086;-75
2023/05/22 03:56:43;;;;;;;56.28;36.50;;;16.70;99.90;;;;;;4957004;28;20118;-75
2023/05/22 03:59:09;;;;;;;62.65;41.72;;;16.80;99.90;;;;;;4955819;29;20039;-73
2023/05/22 04:01:37;;;;;;;63.28;42.38;;;16.70;99.90;;;;;;4956239;28;20051;-74
2023/05/22 04:04:04;;;;;;;57.60;39.38;;;16.70;99.90;;;;;;4956932;28;20101;-74
2023/05/22 04:06:31;;;;;;;59.58;40.08;;;16.70;99.90;;;;;;4955549;28;20047;-74
2023/05/22 04:08:57;;;;;;;59.00;39.42;;;16.80;99.90;;;;;;4957142;28;20035;-74
2023/05/22 04:11:23;;;;;;;55.95;39.55;;;16.70;99.90;;;;;;4956704;28;20134;-75
2023/05/22 04:13:52;;;;;;;58.20;40.38;;;16.80;99.90;;;;;;4956374;28;20071;-75
2023/05/22 04:16:18;;;;;;;59.35;42.03;;;16.80;99.90;;;;;;4962268;28;20051;-73
2023/05/22 04:18:43;;;;;;;53.47;37.70;;;16.80;99.90;;;;;;4964796;28;20035;-74
2023/05/22 04:21:09;;;;;;;62.10;41.38;;;16.80;99.90;;;;;;4963238;28;20565;-74
2023/05/22 04:23:42;;;;;;;61.83;40.38;;;16.80;99.90;;;;;;4962384;28;20114;-74
2023/05/22 04:26:08;;;;;;;57.95;39.30;;;16.80;99.90;;;;;;4963024;28;20091;-75
2023/05/22 04:28:33;;;;;;;58.28;39.95;;;16.80;99.90;;;;;;4970121;28;20502;-76
2023/05/22 04:30:59;;;;;;;60.78;40.17;;;16.80;99.90;;;;;;4966084;28;20063;-75
2023/05/22 04:33:25;;;;;;;61.17;40.92;;;16.80;99.90;;;;;;4955272;29;20047;-74
2023/05/22 04:35:51;;;;;;;58.13;40.63;;;16.80;99.90;;;;;;4932549;29;20494;-74
2023/05/22 04:38:17;;;;;;;62.92;42.35;;;16.70;99.90;;;;;;4937079;29;20040;-75
2023/05/22 04:40:43;;;;;;;59.28;41.92;;;16.80;99.90;;;;;;4920006;29;20047;-73
2023/05/22 04:43:11;;;;;;;55.10;39.50;;;16.70;99.90;;;;;;4937323;29;20427;-75
2023/05/22 04:45:38;;;;;;;56.10;39.15;;;16.80;99.90;;;;;;4935676;29;20126;-74
2023/05/22 04:48:04;;;;;;;62.30;42.08;;;16.70;99.90;;;;;;4936113;29;20103;-74
2023/05/22 04:50:31;;;;;;;62.08;40.65;;;16.80;99.90;;;;;;4936419;29;20044;-73
2023/05/22 04:52:58;;;;;;;62.50;40.80;;;16.80;99.90;;;;;;4936917;29;20046;-73
2023/05/22 04:55:24;;;;;;;56.80;38.42;;;16.80;99.90;;;;;;4935696;29;20549;-74
2023/05/22 04:57:51;;;;;;;50.17;37.72;;;16.70;99.90;;;;;;4935597;29;20052;-73
2023/05/22 05:00:17;;;;;;;55.42;39.65;;;16.70;99.90;;;;;;4935659;29;20051;-73
2023/05/22 05:02:43;;;;;;;61.78;40.78;;;16.70;99.90;;;;;;4935474;29;20083;-76
2023/05/22 05:05:09;;;;;;;59.10;40.35;;;16.80;99.90;;;;;;4935226;29;20086;-74
2023/05/22 05:07:37;;;;;;;58.05;38.58;;;16.70;99.90;;;;;;4936920;29;20058;-73
2023/05/22 05:10:03;;;;;;;56.80;38.83;;;16.80;99.90;;;;;;4935997;29;20055;-75
2023/05/22 05:12:29;;;;;;;53.85;38.15;;;16.80;99.90;;;;;;4936312;29;20044;-72
2023/05/22 05:14:54;;;;;;;60.42;40.72;;;16.80;99.90;;;;;;4936046;29;20079;-74
2023/05/22 05:17:21;;;;;;;52.47;37.92;;;16.80;99.90;;;;;;4935994;29;20419;-75
2023/05/22 05:19:46;;;;;;;59.53;39.67;;;16.70;99.90;;;;;;4936971;29;20086;-74
2023/05/22 05:22:12;;;;;;;59.67;40.00;;;16.70;99.90;;;;;;4935061;29;20071;-72
2023/05/22 05:24:38;;;;;;;54.97;37.92;;;16.70;99.90;;;;;;4936381;29;20462;-72
2023/05/22 05:27:03;;;;;;;54.72;37.70;;;16.80;99.90;;;;;;4936602;29;20039;-74
2023/05/22 05:29:29;;;;;;;52.67;37.47;;;16.80;99.90;;;;;;4935189;29;20079;-74
2023/05/22 05:31:54;;;;;;;48.45;35.90;;;16.70;99.90;;;;;;4934923;29;20075;-75
2023/05/22 05:34:20;;;;;;;58.13;40.15;;;16.80;99.90;;;;;;4918979;29;20050;-75
2023/05/22 05:36:46;;;;;;;50.67;35.13;;;16.80;99.90;;;;;;4936286;29;20082;-74
2023/05/22 05:39:12;;;;;;;60.67;40.28;;;16.80;99.90;;;;;;4934268;29;20079;-72
2023/05/22 05:41:37;;;;;;;51.35;36.30;;;16.80;99.90;;;;;;4934352;29;20069;-74
2023/05/22 05:44:03;;;;;;;57.88;39.65;;;16.80;99.90;;;;;;4934513;29;20499;-72
2023/05/22 05:46:29;;;;;;;58.05;38.20;;;16.90;99.90;;;;;;4934698;29;20117;-72
2023/05/22 05:48:54;;;;;;;49.67;35.45;;;16.90;99.90;;;;;;4936246;29;20046;-75
2023/05/22 05:51:21;;;;;;;52.17;36.22;;;16.90;99.90;;;;;;4934554;29;20139;-75
2023/05/22 05:53:46;;;;;;;56.65;36.78;;;16.90;99.90;;;;;;4934987;29;20046;-74
2023/05/22 05:56:12;;;;;;;51.17;34.70;;;17.00;99.90;;;;;;4935841;29;20062;-73
2023/05/22 05:58:38;;;;;;;54.40;36.22;;;17.00;99.90;;;;;;4935860;29;20044;-72
2023/05/22 06:01:03;;;;;;;50.45;34.63;;;17.00;99.90;;;;;;4935403;29;20495;-71
2023/05/22 06:03:29;;;;;;;49.95;35.75;;;17.00;99.90;;;;;;4934466;29;20054;-74
2023/05/22 06:05:56;;;;;;;52.33;34.40;;;17.00;99.90;;;;;;4934303;29;20052;-74
2023/05/22 06:08:22;;;;;;;48.80;35.15;;;17.00;99.90;;;;;;4934387;29;20429;-75
2023/05/22 06:10:47;;;;;;;48.90;34.70;;;17.00;99.90;;;;;;4935750;29;20118;-74
2023/05/22 06:13:13;;;;;;;47.55;32.90;;;17.00;99.90;;;;;;4935644;29;20075;-72
2023/05/22 06:15:39;;;;;;;44.97;29.15;;;17.00;99.90;;;;;;4934259;29;20087;-73
2023/05/22 06:18:05;;;;;;;40.58;27.65;;;17.10;99.90;;;;;;4934324;29;20046;-74
2023/05/22 06:20:30;;;;;;;42.63;27.15;;;17.10;99.90;;;;;;4935595;29;20043;-73
2023/05/22 06:22:56;;;;;;;42.08;22.33;;;17.10;99.90;;;;;;4934592;29;20459;-74
2023/05/22 06:25:24;;;;;;;29.50;17.95;;;17.10;99.90;;;;;;4938238;29;20130;-75
2023/05/22 06:27:50;;;;;;;31.27;17.73;;;17.10;99.90;;;;;;4970955;28;20042;-72
2023/05/22 06:30:16;;;;;;;26.50;14.95;;;17.10;99.90;;;;;;4976704;28;20399;-73
2023/05/22 06:32:42;;;;;;;27.65;13.98;;;17.00;99.90;;;;;;4977007;28;20039;-73
2023/05/22 06:35:09;;;;;;;27.95;12.65;;;17.00;99.90;;;;;;4960495;28;20039;-73
2023/05/22 06:37:35;;;;;;;27.38;12.70;;;17.00;99.90;;;;;;4977770;28;20434;-73
2023/05/22 06:40:01;;;;;;;25.92;12.07;;;17.00;99.90;;;;;;4977745;28;20047;-75
2023/05/22 06:42:27;;;;;;;27.15;11.80;;;17.00;99.90;;;;;;4976313;28;20049;-74
2023/05/22 06:44:52;;;;;;;28.80;12.32;;;17.10;99.90;;;;;;4960327;28;20069;-73
2023/05/22 06:47:18;;;;;;;27.25;12.10;;;17.10;99.90;;;;;;4960386;28;20035;-74
2023/05/22 06:49:44;;;;;;;25.80;11.93;;;17.10;99.90;;;;;;4976434;28;20047;-74
2023/05/22 06:52:09;;;;;;;22.45;11.35;;;17.10;99.90;;;;;;4976297;28;20109;-74
2023/05/22 06:54:35;;;;;;;30.67;12.27;;;17.10;99.90;;;;;;4976297;28;20105;-73
2023/05/22 06:57:02;;;;;;;28.95;13.38;;;17.20;99.90;;;;;;4976155;28;20091;-73
2023/05/22 06:59:29;;;;;;;26.60;12.93;;;17.20;99.90;;;;;;4976338;28;20365;-73
2023/05/22 07:01:55;;;;;;;26.10;13.80;;;17.20;99.90;;;;;;4975799;28;20046;-75
2023/05/22 07:04:21;;;;;;;23.95;13.27;;;17.20;99.90;;;;;;4976195;28;20050;-73
2023/05/22 07:06:47;;;;;;;25.00;13.50;;;17.20;99.90;;;;;;4976013;28;20122;-74
2023/05/22 07:09:14;;;;;;;26.33;14.35;;;17.20;99.90;;;;;;4976776;28;20038;-74
2023/05/22 07:11:42;;;;;;;23.90;13.98;;;17.20;99.90;;;;;;4976119;28;20051;-75
2023/05/22 07:14:08;;;;;;;28.90;13.02;;;17.20;99.90;;;;;;4976996;28;20533;-74
2023/05/22 07:16:35;;;;;;;23.55;12.98;;;17.30;99.90;;;;;;4977054;28;20038;-73
2023/05/22 07:19:02;;;;;;;23.67;12.55;;;17.40;99.90;;;;;;4975725;28;20054;-74
2023/05/22 07:21:30;;;;;;;28.38;13.38;;;17.40;99.90;;;;;;4975713;28;20055;-75
2023/05/22 07:23:56;;;;;;;25.33;11.95;;;17.40;99.90;;;;;;4975600;28;20058;-74
2023/05/22 07:26:22;;;;;;;21.77;11.65;;;17.50;99.90;;;;;;4976851;28;20395;-73
2023/05/22 07:28:48;;;;;;;19.55;10.98;;;17.50;99.90;;;;;;4977292;28;20043;-73
2023/05/22 07:31:13;;;;;;;24.02;11.30;;;17.50;99.90;;;;;;4975441;28;20047;-75
2023/05/22 07:33:39;;;;;;;21.13;10.80;;;17.50;99.90;;;;;;4975551;28;20089;-74
2023/05/22 07:36:05;;;;;;;23.42;10.18;;;17.50;99.90;;;;;;4974533;28;20110;-73
2023/05/22 07:38:31;;;;;;;20.90;10.70;;;17.50;99.90;;;;;;4975419;28;20122;-74
2023/05/22 07:40:56;;;;;;;22.20;9.77;;;17.60;99.90;;;;;;4975530;28;20050;-74
2023/05/22 07:43:22;;;;;;;18.02;9.98;;;17.60;99.90;;;;;;4976617;28;20525;-71
2023/05/22 07:45:48;;;;;;;23.40;9.95;;;17.60;99.90;;;;;;4976563;28;20049;-71
2023/05/22 07:48:13;;;;;;;14.38;8.55;;;17.70;99.90;;;;;;4976559;28;20113;-74
2023/05/22 07:50:43;;;;;;;19.70;8.63;;;17.70;99.90;;;;;;4976460;28;20038;-74
2023/05/22 07:53:09;;;;;;;13.77;7.93;;;17.80;99.90;;;;;;4976550;28;20042;-73
2023/05/22 07:55:34;;;;;;;20.80;8.68;;;17.90;99.90;;;;;;4976679;28;20053;-73
2023/05/22 07:58:02;;;;;;;17.55;8.13;;;17.90;99.90;;;;;;4976231;28;20053;-73
2023/05/22 08:00:28;;;;;;;16.70;7.60;;;18.00;99.90;;;;;;4974847;28;20047;-73
2023/05/22 08:02:54;;;;;;;15.27;7.60;;;18.00;99.90;;;;;;4976450;28;20069;-73
2023/05/22 08:05:19;;;;;;;18.77;8.20;;;18.00;99.90;;;;;;4975124;28;20049;-74
2023/05/22 08:07:45;;;;;;;17.80;8.00;;;18.00;99.90;;;;;;4976116;28;20053;-76
2023/05/22 08:10:16;;;;;;;17.88;7.53;;;18.00;99.90;;;;;;4974385;28;20047;-73
2023/05/22 08:12:42;;;;;;;12.50;7.32;;;18.00;99.90;;;;;;4974053;28;20050;-74
2023/05/22 08:15:08;;;;;;;15.02;7.70;;;18.00;99.90;;;;;;4975574;28;20122;-73
2023/05/22 08:17:34;;;;;;;17.73;8.00;;;18.00;99.90;;;;;;4975483;28;20150;-75
2023/05/22 08:19:59;;;;;;;11.77;7.60;;;18.00;99.90;;;;;;4975902;28;20495;-75
2023/05/22 08:22:28;;;;;;;16.05;7.80;;;18.00;99.90;;;;;;4974557;28;20042;-73
2023/05/22 08:24:53;;;;;;;16.83;7.68;;;18.10;99.90;;;;;;4975937;28;20510;-74
2023/05/22 08:27:19;;;;;;;16.33;7.88;;;18.30;99.90;;;;;;4975203;28;20114;-74
2023/05/22 08:29:45;;;;;;;18.77;7.78;;;18.50;99.90;;;;;;4973938;28;20042;-74
2023/05/22 08:32:10;;;;;;;14.98;7.80;;;18.60;99.90;;;;;;4957697;28;20070;-75
2023/05/22 08:34:36;;;;;;;15.98;8.38;;;18.70;99.90;;;;;;4975465;28;20031;-74
2023/05/22 08:37:03;;;;;;;14.88;7.45;;;18.80;99.90;;;;;;4974488;28;20474;-75
2023/05/22 08:39:30;;;;;;;13.23;8.05;;;19.00;99.90;;;;;;4974366;28;20046;-73
2023/05/22 08:41:55;;;;;;;13.38;7.32;;;19.20;99.90;;;;;;4957684;28;20097;-75
2023/05/22 08:44:21;;;;;;;14.50;7.95;;;19.40;99.90;;;;;;4973936;28;20043;-74
2023/05/22 08:46:48;;;;;;;12.00;7.25;;;19.50;99.90;;;;;;4975392;28;20043;-74
2023/05/22 08:49:16;;;;;;;14.25;7.68;;;19.60;99.90;;;;;;4974468;28;20054;-73
2023/05/22 08:51:46;;;;;;;16.13;8.80;;;19.80;99.90;;;;;;4975387;28;20038;-74
2023/05/22 08:54:14;;;;;;;14.50;8.57;;;19.90;99.90;;;;;;4975460;28;20042;-74
2023/05/22 08:56:40;;;;;;;15.25;8.05;;;20.10;99.90;;;;;;4975559;28;20043;-74
2023/05/22 08:59:07;;;;;;;16.05;8.70;;;20.30;99.90;;;;;;4974127;28;20042;-76
2023/05/22 09:01:32;;;;;;;14.65;8.57;;;20.40;99.90;;;;;;4973718;28;20058;-75
2023/05/22 09:04:02;;;;;;;18.55;9.30;;;20.50;99.90;;;;;;4974017;28;20086;-72
2023/05/22 09:06:30;;;;;;;18.25;8.88;;;20.50;99.90;;;;;;4975038;28;20039;-75
2023/05/22 09:08:57;;;;;;;15.18;8.73;;;20.70;99.90;;;;;;4973769;28;20126;-73
2023/05/22 09:11:23;;;;;;;15.52;9.15;;;20.80;99.90;;;;;;4975045;28;20069;-75
2023/05/22 09:13:52;;;;;;;17.80;9.60;;;21.00;99.90;;;;;;4960565;28;20082;-73
2023/05/22 09:16:18;;;;;;;13.50;8.55;;;21.10;99.90;;;;;;4954394;28;20054;-74
2023/05/22 09:18:44;;;;;;;18.42;9.23;;;21.20;99.90;;;;;;4954469;29;20058;-76
2023/05/22 09:21:12;;;;;;;13.43;7.90;;;21.30;99.90;;;;;;4955398;28;20035;-76
2023/05/22 09:23:38;;;;;;;18.67;9.25;;;21.50;99.90;;;;;;4954358;29;20193;-75
2023/05/22 09:26:04;;;;;;;17.77;8.82;;;21.60;99.90;;;;;;4954173;28;20134;-75
2023/05/22 09:28:34;;;;;;;14.10;9.38;;;21.70;99.90;;;;;;4954115;29;20047;-74
2023/05/22 09:31:02;;;;;;;19.17;9.48;;;21.80;99.90;;;;;;4954263;28;20102;-72
2023/05/22 09:33:29;;;;;;;14.05;9.25;;;21.80;99.90;;;;;;4955345;28;20394;-73
2023/05/22 09:35:56;;;;;;;16.08;9.63;;;21.80;99.90;;;;;;4955574;28;20086;-74
2023/05/22 09:38:26;;;;;;;15.25;9.82;;;21.70;99.90;;;;;;4955286;28;20043;-73
2023/05/22 09:40:53;;;;;;;19.13;9.25;;;21.50;99.90;;;;;;4954308;28;20499;-74
2023/05/22 09:43:22;;;;;;;15.90;9.70;;;21.40;99.90;;;;;;4954076;29;20039;-76
2023/05/22 09:45:48;;;;;;;18.08;10.10;;;21.40;99.90;;;;;;4954036;28;20039;-76
2023/05/22 09:48:17;;;;;;;19.90;10.02;;;21.30;99.90;;;;;;4953970;29;20049;-74
2023/05/22 09:50:47;;;;;;;16.73;10.52;;;21.30;99.90;;;;;;4954044;28;20114;-73
2023/05/22 09:53:15;;;;;;;19.92;10.20;;;21.30;99.90;;;;;;4955053;28;20496;-71
2023/05/22 09:55:42;;;;;;;17.40;10.23;;;21.30;99.90;;;;;;4954949;28;20495;-74
2023/05/22 09:58:12;;;;;;;15.18;9.93;;;21.30;99.90;;;;;;4953250;28;20055;-74
2023/05/22 10:00:39;;;;;;;19.05;11.07;;;21.30;99.90;;;;;;4954838;28;20129;-74
2023/05/22 10:03:14;;;;;;;17.48;11.25;;;21.40;99.90;;;;;;4953910;29;20054;-75
2023/05/22 10:05:47;;;;;;;17.70;11.10;;;21.40;99.90;;;;;;4953578;29;20052;-75
2023/05/22 10:08:16;;;;;;;15.20;10.70;;;21.50;99.90;;;;;;4953627;29;20053;-77
2023/05/22 10:10:45;;;;;;;14.70;9.77;;;21.50;99.90;;;;;;4953774;28;20043;-76
2023/05/22 10:13:11;;;;;;;15.93;10.60;;;21.60;99.90;;;;;;4953372;28;20055;-74
2023/05/22 10:15:37;;;;;;;17.55;10.32;;;21.60;99.90;;;;;;4954978;28;20364;-77
2023/05/22 10:18:03;;;;;;;18.20;10.55;;;21.60;99.90;;;;;;4955136;28;20042;-77
2023/05/22 10:20:29;;;;;;;17.50;10.45;;;21.60;99.90;;;;;;4953386;28;20130;-76
2023/05/22 10:22:55;;;;;;;23.27;11.70;;;21.70;99.90;;;;;;4954806;28;20082;-75
2023/05/22 10:25:22;;;;;;;19.08;11.32;;;21.70;99.90;;;;;;4953868;28;20047;-73
2023/05/22 10:27:50;;;;;;;18.13;11.15;;;21.80;99.90;;;;;;4960917;28;20094;-74
2023/05/22 10:30:44;;;;;;;20.23;11.93;;;21.90;99.90;;;;;;4961958;28;20061;-73
2023/05/22 10:33:28;;;;;;;17.58;11.27;;;22.00;99.90;;;;;;4960084;28;20414;-77
2023/05/22 10:36:04;;;;;;;20.05;11.82;;;22.20;99.90;;;;;;4961103;28;20043;-77
2023/05/22 10:38:54;;;;;;;19.60;12.38;;;22.60;99.90;;;;;;4942334;29;20054;-73
2023/05/22 10:41:21;;;;;;;16.98;11.95;;;23.00;99.90;;;;;;4964903;28;20042;-76
2023/05/22 10:43:56;;;;;;;19.55;12.23;;;23.20;99.90;;;;;;4973012;28;20055;-82
2023/05/22 10:46:21;;;;;;;18.25;11.25;;;23.50;99.90;;;;;;4973065;28;20090;-76
2023/05/22 10:48:48;;;;;;;16.08;11.70;;;23.70;99.90;;;;;;4972598;28;20459;-76
2023/05/22 10:51:18;;;;;;;15.65;11.63;;;23.90;99.90;;;;;;4974080;28;20053;-78
2023/05/22 10:53:44;;;;;;;17.50;11.30;;;24.10;99.90;;;;;;4974134;28;20074;-79
2023/05/22 10:56:12;;;;;;;15.43;11.15;;;24.10;99.90;;;;;;4974194;28;20078;-76
2023/05/22 10:58:38;;;;;;;24.10;12.18;;;24.20;99.90;;;;;;4973408;28;20049;-76
2023/05/22 11:01:14;;;;;;;18.38;11.30;;;24.20;99.90;;;;;;4972968;28;20119;-76
2023/05/22 11:04:11;;;;;;;16.02;11.70;;;24.30;99.90;;;;;;4958191;28;20348;-78
2023/05/22 11:06:45;;;;;;;15.50;10.75;;;24.30;99.90;;;;;;4973363;28;20042;-77
2023/05/22 11:09:31;;;;;;;14.85;10.07;;;24.20;99.90;;;;;;4972368;28;20104;-75
2023/05/22 11:12:25;;;;;;;17.45;9.95;;;24.40;99.90;;;;;;4961197;28;20070;-75
2023/05/22 11:15:09;;;;;;;16.17;10.35;;;24.50;99.90;;;;;;4957117;29;20535;-74
2023/05/22 11:17:38;;;;;;;12.27;9.68;;;24.70;99.90;;;;;;4956333;28;20074;-74
2023/05/22 11:20:21;;;;;;;15.40;10.02;;;24.90;99.90;;;;;;4954741;29;20574;-73
2023/05/22 11:23:07;;;;;;;13.05;9.82;;;25.10;99.90;;;;;;4955345;29;20070;-74
2023/05/22 11:25:35;;;;;;;14.63;10.48;;;25.30;99.90;;;;;;4954996;29;20054;-74
2023/05/22 11:28:05;;;;;;;14.93;10.45;;;25.30;99.90;;;;;;4956770;28;20128;-76
2023/05/22 11:30:31;;;;;;;13.93;10.05;;;25.30;99.90;;;;;;4956780;28;20035;-75
2023/05/22 11:33:00;;;;;;;13.77;10.20;;;25.40;99.90;;;;;;4957800;28;20062;-73
2023/05/22 11:35:26;;;;;;;13.50;10.68;;;25.40;99.90;;;;;;4957023;29;20069;-76
2023/05/22 11:37:53;;;;;;;13.10;10.60;;;25.40;99.90;;;;;;4958592;28;20047;-74
2023/05/22 11:40:23;;;;;;;12.73;9.95;;;25.50;99.90;;;;;;4956756;28;20051;-73
2023/05/22 11:42:48;;;;;;;13.70;11.25;;;25.50;99.90;;;;;;4958256;28;20039;-74
2023/05/22 11:45:14;;;;;;;15.82;11.18;;;25.50;99.90;;;;;;4958043;29;20043;-75
2023/05/22 11:47:40;;;;;;;15.23;11.35;;;25.60;99.90;;;;;;4957106;29;20475;-74
2023/05/22 11:50:10;;;;;;;14.07;11.13;;;25.80;99.90;;;;;;4958014;28;20045;-74
2023/05/22 11:52:38;;;;;;;14.57;10.50;;;25.70;99.90;;;;;;4958360;28;20067;-73
2023/05/22 11:55:04;;;;;;;18.38;11.65;;;25.70;99.90;;;;;;4958082;29;20051;-75
2023/05/22 11:57:30;;;;;;;14.25;10.55;;;25.90;99.90;;;;;;4956863;29;20085;-76
2023/05/22 11:59:57;;;;;;;12.95;10.55;;;26.00;99.90;;;;;;4958321;28;20115;-74
2023/05/22 12:02:22;;;;;;;12.48;9.90;;;26.10;99.90;;;;;;4957368;28;20047;-75
2023/05/22 12:04:53;;;;;;;12.63;10.48;;;26.20;99.90;;;;;;4957416;29;20043;-77
2023/05/22 12:07:20;;;;;;;20.02;12.05;;;26.00;99.90;;;;;;4958651;28;20058;-76
2023/05/22 12:09:46;;;;;;;21.02;12.63;;;25.80;99.90;;;;;;4957220;29;20079;-74
2023/05/22 12:12:11;;;;;;;19.23;13.48;;;25.40;99.90;;;;;;4957571;28;20102;-75
2023/05/22 12:14:37;;;;;;;20.27;13.65;;;25.00;99.90;;;;;;4956765;29;20071;-76
2023/05/22 12:17:03;;;;;;;19.55;13.02;;;24.70;99.90;;;;;;4958302;28;20047;-75
2023/05/22 12:19:29;;;;;;;16.98;12.88;;;24.30;99.90;;;;;;4956317;29;20556;-73
2023/05/22 12:21:55;;;;;;;19.50;13.85;;;24.20;99.90;;;;;;4956498;28;20050;-75
2023/05/22 12:24:22;;;;;;;19.60;12.63;;;23.90;99.90;;;;;;4957215;29;20126;-73
2023/05/22 12:26:52;;;;;;;17.52;13.75;;;23.80;99.90;;;;;;4958371;28;20131;-74
2023/05/22 12:29:20;;;;;;;19.40;14.73;;;23.90;99.90;;;;;;4958902;29;20035;-73
2023/05/22 12:31:46;;;;;;;20.63;14.85;;;24.10;99.90;;;;;;4956287;28;20499;-76
2023/05/22 12:34:12;;;;;;;15.63;13.55;;;24.20;99.90;;;;;;4956425;29;20082;-74
2023/05/22 12:36:40;;;;;;;18.85;14.77;;;24.10;99.90;;;;;;4957554;28;20070;-75
2023/05/22 12:39:16;;;;;;;18.15;13.90;;;24.00;99.90;;;;;;4957140;29;20427;-77
2023/05/22 12:41:43;;;;;;;17.38;13.77;;;23.90;99.90;;;;;;4956894;28;20509;-76
2023/05/22 12:44:09;;;;;;;18.60;13.40;;;24.10;99.90;;;;;;4957868;28;20395;-72
2023/05/22 12:46:34;;;;;;;18.88;15.20;;;24.40;99.90;;;;;;4956435;29;20043;-74
2023/05/22 12:49:01;;;;;;;17.30;14.40;;;24.50;99.90;;;;;;4958488;28;20046;-77
2023/05/22 12:51:28;;;;;;;20.92;15.43;;;24.60;99.90;;;;;;4957387;28;20408;-76
2023/05/22 12:54:03;;;;;;;20.33;13.65;;;24.70;99.90;;;;;;4958081;28;20126;-75
2023/05/22 12:56:29;;;;;;;;;;;24.60;99.90;;;;;;4958001;29;20066;-75
2023/05/22 12:58:58;;;;;;;18.08;13.32;;;24.60;99.90;;;;;;4958259;28;19923;-76
2023/05/22 13:01:24;;;;;;;17.33;14.77;;;24.70;99.90;;;;;;4957593;28;20048;-75
2023/05/22 13:03:51;;;;;;;17.80;14.02;;;24.60;99.90;;;;;;4956832;29;20087;-76
2023/05/22 13:06:17;;;;;;;18.38;14.85;;;24.50;99.90;;;;;;4957374;28;20159;-72
2023/05/22 13:08:42;;;;;;;18.00;13.55;;;24.50;99.90;;;;;;4957530;29;20511;-75
2023/05/22 13:11:10;;;;;;;17.63;14.07;;;24.60;99.90;;;;;;4956510;28;20487;-77
2023/05/22 13:13:36;;;;;;;18.20;14.40;;;24.60;99.90;;;;;;4956198;29;20075;-79
2023/05/22 13:16:02;;;;;;;20.98;13.90;;;24.70;99.90;;;;;;4957580;28;20098;-75
2023/05/22 13:18:27;;;;;;;18.35;14.95;;;24.90;99.90;;;;;;4955768;29;20043;-75
2023/05/22 13:20:55;;;;;;;19.30;14.30;;;24.80;99.90;;;;;;4957654;28;20051;-76
2023/05/22 13:23:21;;;;;;;16.90;14.05;;;24.90;99.90;;;;;;4957710;29;20113;-76
2023/05/22 13:25:46;;;;;;;21.50;14.30;;;25.10;99.90;;;;;;4956078;29;20044;-77
2023/05/22 13:28:12;;;;;;;19.10;13.75;;;25.20;99.90;;;;;;4956383;29;20126;-78
2023/05/22 13:30:37;;;;;;;20.77;14.80;;;25.10;99.90;;;;;;4955871;28;20039;-74
2023/05/22 13:33:03;;;;;;;18.33;14.48;;;25.20;99.90;;;;;;4956700;28;20040;-77
2023/05/22 13:35:29;;;;;;;17.15;14.85;;;25.20;99.90;;;;;;4955431;29;20051;-77
2023/05/22 13:37:54;;;;;;;23.73;15.02;;;25.10;99.90;;;;;;4957778;28;20086;-80
2023/05/22 13:40:20;;;;;;;17.85;13.70;;;24.80;99.90;;;;;;4957470;28;20043;-74
2023/05/22 13:42:46;;;;;;;25.15;15.38;;;24.70;99.90;;;;;;4956945;29;20039;-79
2023/05/22 13:45:11;;;;;;;21.83;15.63;;;24.50;99.90;;;;;;4956076;29;20043;-76
2023/05/22 13:47:37;;;;;;;20.13;15.05;;;24.40;99.90;;;;;;4955829;29;20045;-76
2023/05/22 13:50:04;;;;;;;17.13;13.80;;;24.20;99.90;;;;;;4957311;28;20086;-82
2023/05/22 13:52:29;;;;;;;17.02;13.93;;;24.30;99.90;;;;;;4955756;28;20051;-75
2023/05/22 13:54:55;;;;;;;17.48;13.70;;;24.20;99.90;;;;;;4955063;29;20115;-78
2023/05/22 13:57:21;;;;;;;19.63;13.98;;;24.00;99.90;;;;;;4956514;28;20046;-78
2023/05/22 13:59:46;;;;;;;15.50;11.90;;;23.80;99.90;;;;;;4955418;29;20544;-77
2023/05/22 14:02:12;;;;;;;14.15;9.98;;;23.80;99.90;;;;;;4955626;28;20094;-75
2023/05/22 14:04:38;;;;;;;12.45;8.68;;;23.90;99.90;;;;;;4954376;29;20055;-74
2023/05/22 14:07:04;;;;;;;13.13;8.82;;;24.00;99.90;;;;;;4954528;29;20066;-75
2023/05/22 14:09:30;;;;;;;12.85;8.98;;;24.10;99.90;;;;;;4954742;29;20529;-77
2023/05/22 14:11:56;;;;;;;13.43;8.52;;;24.20;99.90;;;;;;4956041;28;20089;-78
2023/05/22 14:14:23;;;;;;;14.18;8.63;;;24.20;99.90;;;;;;4938659;29;20051;-74
2023/05/22 14:16:52;;;;;;;10.65;8.25;;;24.10;99.90;;;;;;4954690;29;20043;-74
2023/05/22 14:19:19;;;;;;;10.65;7.25;;;24.30;99.90;;;;;;4956056;28;20047;-76
2023/05/22 14:21:47;;;;;;;9.10;6.20;;;24.40;99.90;;;;;;4956349;28;20068;-77
2023/05/22 14:24:12;;;;;;;9.82;5.00;;;24.50;99.90;;;;;;4956072;28;20043;-76
2023/05/22 14:26:38;;;;;;;7.18;4.40;;;24.50;99.90;;;;;;4954747;29;20048;-74
2023/05/22 14:29:04;;;;;;;9.55;6.32;;;24.60;99.90;;;;;;4955661;28;20447;-76
2023/05/22 14:31:29;;;;;;;7.63;5.85;;;24.50;99.90;;;;;;4955795;28;20045;-77
2023/05/22 14:33:55;;;;;;;6.85;4.97;;;24.60;99.90;;;;;;4954524;29;20035;-75
2023/05/22 14:36:21;;;;;;;7.88;5.28;;;24.50;99.90;;;;;;4954436;29;20078;-76
2023/05/22 14:38:46;;;;;;;7.97;5.70;;;24.60;99.90;;;;;;4954192;29;20047;-76
2023/05/22 14:41:12;;;;;;;7.65;5.40;;;24.70;99.90;;;;;;4954512;28;20119;-78
2023/05/22 14:43:38;;;;;;;6.57;4.30;;;24.70;99.90;;;;;;4955738;28;20046;-76
2023/05/22 14:46:03;;;;;;;5.28;3.92;;;24.70;99.90;;;;;;4958903;28;20043;-73
2023/05/22 14:48:29;;;;;;;7.82;4.88;;;24.70;99.90;;;;;;4959148;28;20043;-72
2023/05/22 14:50:55;;;;;;;9.73;4.90;;;24.90;99.90;;;;;;4957664;28;20050;-78
2023/05/22 14:53:21;;;;;;;7.13;4.60;;;24.70;99.90;;;;;;4959732;28;20035;-77
2023/05/22 14:55:47;;;;;;;12.15;6.80;;;24.50;99.90;;;;;;4959191;28;20046;-78
2023/05/22 14:58:13;;;;;;;7.82;5.80;;;24.60;99.90;;;;;;4957852;29;20047;-74
2023/05/22 15:00:39;;;;;;;9.13;5.80;;;24.60;99.90;;;;;;4957865;28;20090;-77
2023/05/22 15:03:05;;;;;;;8.27;5.65;;;24.60;99.90;;;;;;4942062;29;20043;-76
2023/05/22 15:05:31;;;;;;;14.73;7.25;;;24.70;99.90;;;;;;4957617;28;20039;-76
2023/05/22 15:07:57;;;;;;;10.00;5.82;;;24.50;99.90;;;;;;4959043;28;20514;-78
2023/05/22 15:10:26;;;;;;;9.70;5.80;;;24.30;99.90;;;;;;4957678;28;20043;-72
2023/05/22 15:12:52;;;;;;;9.32;6.35;;;24.20;99.90;;;;;;4958784;28;20118;-78
2023/05/22 15:15:19;;;;;;;13.40;6.45;;;24.10;99.90;;;;;;4958748;28;20069;-76
2023/05/22 15:17:44;;;;;;;13.30;7.55;;;24.00;99.90;;;;;;4957761;29;20066;-76
2023/05/22 15:20:11;;;;;;;16.10;8.57;;;24.00;99.90;;;;;;4958892;28;20479;-78
2023/05/22 15:22:38;;;;;;;12.57;7.95;;;23.90;99.90;;;;;;4957324;28;20082;-77
2023/05/22 15:25:05;;;;;;;13.00;8.57;;;23.90;99.90;;;;;;4957664;29;20427;-74
2023/05/22 15:27:33;;;;;;;12.63;8.43;;;24.00;99.90;;;;;;4941476;29;20086;-74
2023/05/22 15:29:59;;;;;;;11.73;8.32;;;23.90;99.90;;;;;;4957087;29;20067;-78